createdAt,value
2022-08-17T00:00:03.712Z,87.52
2022-08-17T00:01:03.783Z,87.42
2022-08-17T00:02:05.841Z,87.12
2022-08-17T00:03:03.709Z,87.32
2022-08-17T00:04:06.879Z,87.73
2022-08-17T00:05:03.707Z,87.62
2022-08-17T00:06:03.703Z,87.32
2022-08-17T00:07:03.702Z,87.32
2022-08-17T00:08:03.714Z,87.42
2022-08-17T00:09:03.698Z,87.46
2022-08-17T00:10:03.765Z,87.46
2022-08-17T00:11:03.698Z,87.32
2022-08-17T00:12:34.934Z,87.16
2022-08-17T00:13:03.693Z,87.46
2022-08-17T00:14:03.699Z,87.32
2022-08-17T00:15:03.696Z,87.32
2022-08-17T00:16:03.693Z,87.57
2022-08-17T00:17:03.729Z,87.37
2022-08-17T00:18:03.689Z,86.96
2022-08-17T00:19:08.425Z,87.37
2022-08-17T00:20:03.685Z,87.57
2022-08-17T00:21:03.685Z,87.16
2022-08-17T00:22:32.499Z,87.26
2022-08-17T00:23:03.682Z,87.46
2022-08-17T00:24:03.682Z,87.06
2022-08-17T00:25:03.687Z,87.46
2022-08-17T00:26:03.678Z,87.66
2022-08-17T00:27:03.680Z,87.46
2022-08-17T00:28:03.676Z,87.46
2022-08-17T00:29:03.678Z,87.26
2022-08-17T00:30:03.676Z,87.41
2022-08-17T00:31:03.672Z,87.57
2022-08-17T00:33:14.350Z,88.11
2022-08-17T00:33:15.898Z,87.57
2022-08-17T00:34:03.666Z,87.81
2022-08-17T00:35:03.668Z,87.71
2022-08-17T00:36:03.669Z,87.41
2022-08-17T00:37:03.673Z,87.91
2022-08-17T00:38:03.658Z,87.71
2022-08-17T00:39:03.661Z,87.71
2022-08-17T00:40:03.744Z,87.81
2022-08-17T00:41:03.658Z,88.31
2022-08-17T00:42:03.659Z,88.71
2022-08-17T00:43:03.654Z,88.75
2022-08-17T00:44:03.660Z,89.15
2022-08-17T00:45:03.650Z,89.06
2022-08-17T00:46:03.655Z,89.26
2022-08-17T00:47:03.651Z,88.85
2022-08-17T00:48:03.652Z,89.56
2022-08-17T00:49:03.649Z,89.36
2022-08-17T00:50:03.650Z,89.76
2022-08-17T00:51:03.646Z,89.90
2022-08-17T00:52:03.653Z,89.70
2022-08-17T00:53:03.641Z,89.56
2022-08-17T00:54:03.645Z,89.56
2022-08-17T00:55:03.638Z,90.06
2022-08-17T00:56:03.642Z,90.16
2022-08-17T00:57:03.638Z,89.86
2022-08-17T00:58:03.639Z,90.06
2022-08-17T00:59:03.631Z,90.30
2022-08-17T01:00:04.047Z,90.16
2022-08-17T01:01:03.738Z,90.20
2022-08-17T01:02:03.709Z,90.11
2022-08-17T01:03:03.624Z,90.26
2022-08-17T01:04:03.637Z,90.26
2022-08-17T01:05:03.624Z,90.11
2022-08-17T01:06:03.623Z,89.46
2022-08-17T01:07:03.622Z,89.56
2022-08-17T01:08:03.620Z,89.26
2022-08-17T01:09:03.623Z,89.06
2022-08-17T01:10:03.621Z,88.91
2022-08-17T01:11:03.613Z,88.71
2022-08-17T01:12:03.619Z,88.75
2022-08-17T01:13:03.612Z,88.41
2022-08-17T01:14:03.608Z,88.41
2022-08-17T01:15:03.611Z,88.41
2022-08-17T01:16:03.610Z,88.41
2022-08-17T01:17:03.606Z,88.45
2022-08-17T01:18:03.606Z,88.45
2022-08-17T01:19:03.605Z,88.65
2022-08-17T01:20:03.597Z,88.75
2022-08-17T01:21:03.600Z,88.55
2022-08-17T01:22:03.598Z,89.06
2022-08-17T01:23:03.594Z,89.60
2022-08-17T01:24:03.598Z,89.90
2022-08-17T01:25:03.591Z,90.61
2022-08-17T01:26:03.592Z,90.75
2022-08-17T01:27:03.593Z,90.75
2022-08-17T01:28:03.589Z,90.85
2022-08-17T01:29:03.583Z,91.15
2022-08-17T01:30:03.585Z,91.66
2022-08-17T01:31:03.583Z,90.85
2022-08-17T01:32:03.592Z,90.75
2022-08-17T01:33:03.578Z,90.11
2022-08-17T01:34:03.575Z,90.20
2022-08-17T01:35:03.576Z,90.11
2022-08-17T01:36:03.588Z,90.30
2022-08-17T01:37:03.573Z,90.00
2022-08-17T01:38:03.572Z,89.60
2022-08-17T01:39:03.565Z,89.60
2022-08-17T01:40:03.609Z,90.11
2022-08-17T01:41:03.564Z,91.05
2022-08-17T01:42:03.562Z,91.90
2022-08-17T01:43:03.557Z,91.60
2022-08-17T01:44:03.557Z,92.20
2022-08-17T01:45:03.557Z,93.15
2022-08-17T01:46:04.167Z,93.91
2022-08-17T01:47:03.554Z,94.06
2022-08-17T01:48:03.553Z,93.81
2022-08-17T01:49:03.552Z,93.91
2022-08-17T01:50:03.546Z,93.86
2022-08-17T01:51:03.544Z,93.81
2022-08-17T01:52:03.544Z,93.81
2022-08-17T01:53:03.543Z,93.61
2022-08-17T01:54:03.537Z,93.66
2022-08-17T01:55:03.539Z,93.96
2022-08-17T01:56:03.532Z,93.21
2022-08-17T01:57:03.528Z,93.46
2022-08-17T01:58:03.526Z,93.51
2022-08-17T01:59:03.529Z,93.76
2022-08-17T02:00:03.528Z,93.76
2022-08-17T02:01:03.549Z,93.86
2022-08-17T02:02:03.520Z,93.31
2022-08-17T02:03:03.520Z,93.71
2022-08-17T02:04:03.517Z,93.11
2022-08-17T02:05:03.512Z,92.91
2022-08-17T02:06:03.512Z,93.11
2022-08-17T02:07:03.513Z,92.60
2022-08-17T02:08:03.509Z,92.60
2022-08-17T02:09:03.963Z,92.71
2022-08-17T02:10:03.506Z,92.50
2022-08-17T02:11:03.505Z,92.60
2022-08-17T02:12:47.444Z,92.40
2022-08-17T02:13:03.509Z,92.60
2022-08-17T02:14:04.160Z,92.60
2022-08-17T02:15:03.499Z,92.20
2022-08-17T02:16:03.495Z,91.86
2022-08-17T02:17:03.492Z,91.19
2022-08-17T02:18:03.489Z,91.70
2022-08-17T02:19:03.489Z,91.86
2022-08-17T02:20:03.521Z,91.90
2022-08-17T02:21:03.487Z,91.60
2022-08-17T02:22:03.493Z,91.35
2022-08-17T02:23:03.479Z,91.25
2022-08-17T02:24:03.478Z,90.85
2022-08-17T02:25:03.474Z,90.69
2022-08-17T02:26:03.476Z,91.09
2022-08-17T02:27:03.470Z,90.99
2022-08-17T02:28:03.476Z,90.65
2022-08-17T02:29:03.463Z,90.99
2022-08-17T02:30:03.467Z,91.09
2022-08-17T02:31:03.472Z,91.15
2022-08-17T02:32:03.463Z,91.46
2022-08-17T02:33:04.267Z,91.60
2022-08-17T02:34:05.178Z,90.49
2022-08-17T02:35:03.457Z,90.89
2022-08-17T02:36:03.458Z,90.99
2022-08-17T02:37:03.448Z,90.99
2022-08-17T02:38:03.445Z,91.25
2022-08-17T02:39:03.457Z,90.49
2022-08-17T02:40:03.503Z,90.95
2022-08-17T02:41:03.445Z,90.89
2022-08-17T02:42:03.441Z,90.79
2022-08-17T02:43:03.439Z,90.79
2022-08-17T02:44:03.434Z,90.69
2022-08-17T02:45:03.435Z,90.75
2022-08-17T02:46:03.427Z,90.79
2022-08-17T02:47:03.426Z,91.19
2022-08-17T02:48:03.425Z,90.69
2022-08-17T02:49:03.420Z,91.70
2022-08-17T02:50:03.419Z,91.90
2022-08-17T02:51:03.417Z,91.34
2022-08-17T02:52:03.422Z,92.55
2022-08-17T02:53:04.785Z,93.55
2022-08-17T02:54:40.591Z,94.31
2022-08-17T02:55:03.408Z,94.20
2022-08-17T02:56:03.405Z,94.95
2022-08-17T02:57:03.400Z,94.85
2022-08-17T02:58:03.400Z,94.75
2022-08-17T02:59:03.413Z,95.36
2022-08-17T03:00:03.394Z,95.26
2022-08-17T03:01:03.457Z,95.56
2022-08-17T03:02:03.450Z,95.56
2022-08-17T03:03:03.388Z,95.15
2022-08-17T03:04:03.384Z,95.66
2022-08-17T03:05:03.383Z,95.96
2022-08-17T03:06:03.380Z,95.76
2022-08-17T03:07:03.377Z,95.76
2022-08-17T03:08:03.375Z,95.36
2022-08-17T03:09:03.376Z,95.46
2022-08-17T03:10:03.369Z,95.46
2022-08-17T03:11:03.368Z,94.55
2022-08-17T03:12:03.364Z,94.20
2022-08-17T03:13:03.363Z,95.01
2022-08-17T03:14:03.360Z,94.40
2022-08-17T03:15:03.359Z,94.40
2022-08-17T03:16:03.355Z,94.40
2022-08-17T03:17:03.357Z,94.10
2022-08-17T03:18:03.352Z,94.40
2022-08-17T03:19:03.347Z,94.91
2022-08-17T03:20:03.356Z,94.75
2022-08-17T03:21:03.340Z,94.65
2022-08-17T03:22:08.794Z,95.26
2022-08-17T03:23:03.387Z,95.46
2022-08-17T03:24:05.899Z,95.26
2022-08-17T03:25:03.333Z,95.36
2022-08-17T03:26:03.329Z,95.96
2022-08-17T03:27:03.328Z,95.86
2022-08-17T03:28:03.327Z,95.66
2022-08-17T03:29:03.321Z,95.86
2022-08-17T03:30:03.329Z,95.66
2022-08-17T03:31:03.316Z,95.86
2022-08-17T03:32:03.315Z,95.66
2022-08-17T03:33:03.315Z,95.36
2022-08-17T03:34:03.306Z,95.76
2022-08-17T03:35:03.332Z,95.70
2022-08-17T03:36:03.305Z,95.76
2022-08-17T03:37:03.307Z,95.76
2022-08-17T03:38:03.299Z,95.36
2022-08-17T03:39:03.300Z,95.46
2022-08-17T03:40:03.321Z,95.86
2022-08-17T03:41:03.289Z,95.86
2022-08-17T03:42:03.289Z,95.66
2022-08-17T03:43:03.287Z,94.95
2022-08-17T03:44:03.285Z,95.46
2022-08-17T03:45:03.282Z,95.66
2022-08-17T03:46:03.283Z,95.15
2022-08-17T03:47:03.279Z,95.26
2022-08-17T03:48:03.274Z,95.15
2022-08-17T03:49:03.269Z,94.65
2022-08-17T03:50:03.269Z,94.65
2022-08-17T03:51:03.267Z,95.36
2022-08-17T03:52:03.263Z,94.85
2022-08-17T03:53:03.261Z,95.15
2022-08-17T03:54:03.260Z,94.45
2022-08-17T03:55:03.258Z,94.55
2022-08-17T03:56:03.259Z,94.85
2022-08-17T03:57:03.257Z,94.65
2022-08-17T03:58:03.250Z,94.75
2022-08-17T03:59:03.252Z,94.85
2022-08-17T04:00:03.245Z,94.60
2022-08-17T04:01:03.288Z,95.15
2022-08-17T04:02:03.241Z,94.55
2022-08-17T04:03:03.239Z,95.06
2022-08-17T04:04:03.243Z,94.71
2022-08-17T04:05:03.234Z,94.51
2022-08-17T04:06:03.243Z,94.81
2022-08-17T04:07:03.230Z,94.10
2022-08-17T04:08:03.228Z,94.20
2022-08-17T04:09:03.226Z,94.40
2022-08-17T04:10:03.225Z,94.60
2022-08-17T04:11:03.219Z,94.20
2022-08-17T04:12:04.889Z,94.60
2022-08-17T04:13:03.212Z,94.00
2022-08-17T04:14:03.211Z,94.10
2022-08-17T04:15:03.210Z,94.31
2022-08-17T04:16:03.204Z,93.90
2022-08-17T04:17:03.222Z,93.60
2022-08-17T04:18:03.207Z,93.66
2022-08-17T04:19:03.202Z,93.55
2022-08-17T04:20:03.204Z,93.86
2022-08-17T04:21:03.194Z,93.76
2022-08-17T04:22:03.200Z,92.95
2022-08-17T04:23:03.190Z,93.05
2022-08-17T04:24:03.189Z,92.65
2022-08-17T04:25:03.186Z,93.15
2022-08-17T04:26:03.194Z,92.95
2022-08-17T04:27:03.183Z,93.26
2022-08-17T04:28:03.183Z,93.35
2022-08-17T04:29:03.175Z,93.26
2022-08-17T04:30:03.174Z,93.66
2022-08-17T04:31:03.174Z,93.35
2022-08-17T04:32:03.175Z,93.46
2022-08-17T04:33:06.195Z,93.76
2022-08-17T04:34:03.165Z,93.66
2022-08-17T04:35:03.161Z,93.86
2022-08-17T04:36:03.164Z,93.35
2022-08-17T04:37:03.160Z,93.61
2022-08-17T04:38:03.168Z,93.41
2022-08-17T04:39:03.154Z,93.41
2022-08-17T04:40:04.381Z,92.91
2022-08-17T04:41:03.149Z,92.60
2022-08-17T04:42:03.152Z,92.20
2022-08-17T04:43:03.150Z,91.70
2022-08-17T04:44:03.145Z,91.15
2022-08-17T04:45:03.141Z,90.65
2022-08-17T04:46:03.143Z,90.75
2022-08-17T04:47:03.141Z,90.00
2022-08-17T04:48:03.135Z,89.50
2022-08-17T04:49:03.133Z,89.40
2022-08-17T04:50:03.208Z,89.06
2022-08-17T04:51:03.129Z,88.75
2022-08-17T04:52:04.655Z,88.55
2022-08-17T04:53:03.125Z,87.85
2022-08-17T04:54:03.125Z,87.41
2022-08-17T04:55:03.123Z,87.21
2022-08-17T04:56:03.119Z,86.70
2022-08-17T04:57:03.113Z,86.06
2022-08-17T04:58:03.118Z,85.82
2022-08-17T04:59:03.112Z,84.97
2022-08-17T05:00:03.208Z,83.99
2022-08-17T05:01:03.184Z,83.05
2022-08-17T05:02:03.106Z,81.51
2022-08-17T05:03:03.103Z,80.57
2022-08-17T05:04:20.861Z,77.56
2022-08-17T05:05:03.100Z,75.42
2022-08-17T05:06:03.097Z,74.05
2022-08-17T05:07:03.097Z,73.18
2022-08-17T05:08:03.094Z,72.65
2022-08-17T05:09:03.093Z,71.78
2022-08-17T05:10:03.091Z,69.16
2022-08-17T05:11:03.089Z,69.13
2022-08-17T05:12:03.087Z,67.97
2022-08-17T05:13:03.086Z,66.94
2022-08-17T05:14:03.086Z,66.22
2022-08-17T05:15:03.084Z,65.49
2022-08-17T05:16:03.082Z,64.23
2022-08-17T05:17:07.244Z,63.71
2022-08-17T05:18:03.083Z,62.99
2022-08-17T05:19:03.082Z,62.16
2022-08-17T05:20:03.077Z,61.64
2022-08-17T05:21:03.079Z,60.42
2022-08-17T05:22:03.079Z,58.84
2022-08-17T05:23:03.078Z,58.22
2022-08-17T05:24:03.071Z,58.32
2022-08-17T05:25:03.075Z,59.11
2022-08-17T05:26:03.073Z,58.74
2022-08-17T05:27:06.667Z,59.23
2022-08-17T05:28:03.076Z,59.53
2022-08-17T05:29:03.133Z,59.86
2022-08-17T05:30:03.073Z,60.08
2022-08-17T05:31:03.071Z,59.99
2022-08-17T05:32:03.073Z,61.10
2022-08-17T05:33:03.071Z,60.91
2022-08-17T05:34:03.072Z,61.37
2022-08-17T05:35:03.072Z,60.45
2022-08-17T05:36:03.075Z,60.19
2022-08-17T05:37:03.080Z,60.16
2022-08-17T05:38:03.077Z,58.64
2022-08-17T05:39:03.075Z,59.63
2022-08-17T05:40:03.187Z,59.01
2022-08-17T05:41:03.073Z,58.19
2022-08-17T05:42:03.075Z,57.67
2022-08-17T05:43:03.077Z,56.85
2022-08-17T05:44:05.408Z,57.32
2022-08-17T05:45:03.100Z,57.02
2022-08-17T05:46:03.073Z,56.04
2022-08-17T05:47:03.077Z,56.30
2022-08-17T05:48:03.078Z,56.01
2022-08-17T05:49:03.078Z,55.29
2022-08-17T05:50:03.079Z,55.36
2022-08-17T05:51:03.078Z,54.28
2022-08-17T05:52:03.078Z,54.62
2022-08-17T05:53:03.088Z,53.47
2022-08-17T05:54:03.082Z,53.34
2022-08-17T05:55:03.085Z,52.75
2022-08-17T05:56:03.087Z,52.33
2022-08-17T05:57:03.087Z,52.82
2022-08-17T05:58:03.088Z,52.21
2022-08-17T05:59:03.088Z,50.90
2022-08-17T06:00:03.093Z,51.00
2022-08-17T06:01:03.106Z,50.98
2022-08-17T06:02:03.092Z,50.14
2022-08-17T06:03:03.094Z,49.07
2022-08-17T06:04:03.095Z,49.33
2022-08-17T06:05:03.107Z,48.06
2022-08-17T06:06:03.138Z,48.06
2022-08-17T06:07:03.100Z,49.24
2022-08-17T06:08:03.106Z,49.14
2022-08-17T06:09:03.108Z,48.55
2022-08-17T06:10:03.108Z,48.35
2022-08-17T06:11:03.111Z,48.82
2022-08-17T06:12:03.109Z,48.23
2022-08-17T06:13:03.113Z,48.55
2022-08-17T06:14:03.112Z,48.63
2022-08-17T06:15:03.120Z,47.74
2022-08-17T06:16:03.129Z,48.43
2022-08-17T06:17:03.120Z,47.16
2022-08-17T06:18:03.138Z,47.13
2022-08-17T06:19:03.132Z,47.23
2022-08-17T06:20:03.134Z,45.73
2022-08-17T06:21:03.133Z,44.83
2022-08-17T06:22:03.136Z,44.83
2022-08-17T06:23:03.138Z,45.23
2022-08-17T06:24:03.139Z,46.08
2022-08-17T06:25:03.142Z,44.91
2022-08-17T06:26:03.147Z,43.42
2022-08-17T06:27:03.149Z,44.98
2022-08-17T06:28:03.176Z,44.38
2022-08-17T06:29:03.159Z,44.38
2022-08-17T06:30:03.159Z,43.18
2022-08-17T06:31:03.162Z,43.18
2022-08-17T06:32:03.167Z,41.91
2022-08-17T06:33:03.166Z,44.14
2022-08-17T06:34:03.174Z,42.58
2022-08-17T06:35:03.180Z,43.14
2022-08-17T06:36:06.196Z,40.41
2022-08-17T06:37:03.768Z,41.58
2022-08-17T06:38:03.187Z,41.67
2022-08-17T06:39:03.194Z,40.89
2022-08-17T06:40:03.257Z,40.97
2022-08-17T06:41:03.201Z,39.55
2022-08-17T06:42:03.206Z,41.99
2022-08-17T06:43:06.412Z,40.14
2022-08-17T06:44:03.222Z,39.67
2022-08-17T06:45:03.219Z,39.86
2022-08-17T06:46:04.116Z,40.74
2022-08-17T06:47:03.237Z,40.33
2022-08-17T06:48:03.233Z,39.14
2022-08-17T06:49:03.238Z,38.35
2022-08-17T06:50:03.259Z,38.45
2022-08-17T06:51:03.250Z,38.26
2022-08-17T06:52:03.255Z,38.90
2022-08-17T06:53:03.259Z,40.27
2022-08-17T06:54:03.265Z,40.94
2022-08-17T06:55:03.268Z,40.04
2022-08-17T06:56:03.278Z,38.55
2022-08-17T06:57:03.279Z,38.77
2022-08-17T06:58:05.891Z,39.33
2022-08-17T06:59:03.294Z,38.28
2022-08-17T07:00:03.296Z,39.20
2022-08-17T07:01:03.361Z,38.71
2022-08-17T07:02:03.307Z,38.32
2022-08-17T07:03:03.383Z,40.09
2022-08-17T07:04:06.759Z,40.19
2022-08-17T07:05:03.323Z,40.17
2022-08-17T07:06:03.329Z,39.08
2022-08-17T07:07:03.337Z,37.32
2022-08-17T07:08:03.343Z,38.20
2022-08-17T07:09:03.346Z,38.48
2022-08-17T07:10:03.353Z,39.00
2022-08-17T07:11:03.359Z,37.13
2022-08-17T07:12:03.365Z,36.02
2022-08-17T07:13:03.384Z,35.33
2022-08-17T07:14:03.391Z,36.57
2022-08-17T07:15:03.400Z,33.95
2022-08-17T07:16:03.402Z,34.24
2022-08-17T07:17:03.408Z,32.96
2022-08-17T07:18:03.544Z,32.57
2022-08-17T07:19:03.408Z,31.40
2022-08-17T07:20:03.418Z,31.92
2022-08-17T07:21:03.423Z,33.02
2022-08-17T07:22:03.428Z,33.33
2022-08-17T07:23:03.434Z,34.06
2022-08-17T07:24:03.439Z,36.58
2022-08-17T07:25:03.447Z,34.75
2022-08-17T07:26:03.455Z,36.60
2022-08-17T07:27:03.463Z,36.88
2022-08-17T07:28:05.298Z,36.16
2022-08-17T07:29:03.473Z,35.55
2022-08-17T07:30:06.867Z,35.31
2022-08-17T07:31:03.488Z,34.32
2022-08-17T07:32:03.496Z,34.77
2022-08-17T07:33:03.501Z,33.88
2022-08-17T07:34:03.512Z,34.35
2022-08-17T07:35:03.516Z,31.63
2022-08-17T07:36:03.525Z,32.59
2022-08-17T07:37:03.532Z,32.20
2022-08-17T07:38:03.538Z,31.04
2022-08-17T07:39:03.545Z,31.32
2022-08-17T07:40:15.248Z,31.60
2022-08-17T07:41:03.677Z,31.59
2022-08-17T07:42:03.564Z,31.20
2022-08-17T07:43:04.952Z,31.01
2022-08-17T07:44:03.595Z,31.97
2022-08-17T07:45:03.598Z,31.04
2022-08-17T07:46:03.597Z,31.34
2022-08-17T07:47:03.599Z,31.65
2022-08-17T07:48:03.611Z,31.94
2022-08-17T07:49:03.650Z,31.35
2022-08-17T07:50:03.622Z,32.13
2022-08-17T07:51:03.628Z,30.48
2022-08-17T07:52:47.388Z,31.55
2022-08-17T07:53:03.649Z,29.98
2022-08-17T07:54:14.029Z,29.40
2022-08-17T07:55:03.660Z,30.29
2022-08-17T07:56:03.667Z,29.90
2022-08-17T07:57:03.672Z,30.22
2022-08-17T07:58:03.689Z,32.05
2022-08-17T07:59:03.689Z,32.96
2022-08-17T08:00:03.702Z,33.67
2022-08-17T08:01:03.704Z,35.16
2022-08-17T08:02:03.810Z,36.15
2022-08-17T08:03:03.709Z,36.73
2022-08-17T08:04:03.721Z,38.04
2022-08-17T08:05:03.727Z,38.28
2022-08-17T08:06:03.736Z,38.39
2022-08-17T08:07:03.741Z,38.90
2022-08-17T08:08:03.751Z,39.49
2022-08-17T08:09:03.752Z,40.19
2022-08-17T08:10:03.767Z,39.90
2022-08-17T08:11:03.766Z,39.90
2022-08-17T08:12:03.772Z,41.27
2022-08-17T08:13:03.778Z,41.56
2022-08-17T08:14:03.782Z,40.48
2022-08-17T08:15:03.787Z,40.41
2022-08-17T08:16:03.794Z,41.49
2022-08-17T08:17:03.802Z,41.00
2022-08-17T08:18:03.803Z,41.66
2022-08-17T08:19:03.809Z,41.64
2022-08-17T08:20:19.723Z,40.27
2022-08-17T08:21:03.819Z,40.48
2022-08-17T08:22:03.829Z,40.29
2022-08-17T08:23:03.830Z,41.58
2022-08-17T08:24:03.836Z,40.90
2022-08-17T08:25:03.865Z,40.11
2022-08-17T08:26:03.848Z,40.13
2022-08-17T08:27:03.848Z,40.92
2022-08-17T08:28:03.856Z,41.72
2022-08-17T08:29:03.858Z,41.71
2022-08-17T08:30:03.866Z,40.33
2022-08-17T08:31:03.867Z,41.11
2022-08-17T08:32:03.893Z,40.72
2022-08-17T08:33:03.879Z,40.43
2022-08-17T08:34:03.883Z,40.92
2022-08-17T08:35:04.053Z,40.45
2022-08-17T08:36:03.890Z,41.24
2022-08-17T08:37:16.595Z,39.78
2022-08-17T08:38:03.898Z,41.64
2022-08-17T08:39:03.904Z,40.96
2022-08-17T08:40:03.997Z,41.37
2022-08-17T08:41:03.926Z,41.17
2022-08-17T08:42:03.919Z,41.86
2022-08-17T08:43:03.928Z,41.96
2022-08-17T08:44:03.931Z,42.85
2022-08-17T08:45:05.015Z,42.57
2022-08-17T08:46:03.935Z,41.59
2022-08-17T08:47:03.937Z,41.02
2022-08-17T08:48:05.651Z,41.33
2022-08-17T08:49:11.901Z,41.94
2022-08-17T08:50:05.381Z,42.32
2022-08-17T08:51:03.953Z,41.25
2022-08-17T08:52:03.954Z,42.63
2022-08-17T08:53:03.957Z,42.63
2022-08-17T08:54:03.968Z,43.32
2022-08-17T08:55:03.969Z,43.03
2022-08-17T08:56:03.972Z,41.63
2022-08-17T08:58:03.982Z,43.48
2022-08-17T08:59:03.983Z,42.40
2022-08-17T09:00:03.985Z,42.20
2022-08-17T09:01:04.020Z,43.28
2022-08-17T09:02:03.997Z,41.90
2022-08-17T09:03:03.996Z,43.38
2022-08-17T09:04:21.433Z,42.30
2022-08-17T09:05:17.050Z,41.71
2022-08-17T09:06:04.011Z,41.04
2022-08-17T09:07:04.014Z,41.22
2022-08-17T09:08:04.016Z,40.74
2022-08-17T09:09:04.019Z,41.04
2022-08-17T09:10:04.032Z,42.99
2022-08-17T09:11:04.027Z,42.00
2022-08-17T09:12:04.397Z,42.20
2022-08-17T09:13:09.905Z,42.00
2022-08-17T09:14:04.039Z,42.47
2022-08-17T09:15:04.042Z,42.79
2022-08-17T09:16:04.048Z,42.67
2022-08-17T09:17:04.050Z,41.61
2022-08-17T09:19:03.544Z,41.00
2022-08-17T09:19:04.944Z,41.88
2022-08-17T09:20:04.062Z,41.19
2022-08-17T09:21:04.074Z,42.86
2022-08-17T09:22:04.073Z,42.28
2022-08-17T09:23:04.083Z,42.47
2022-08-17T09:24:04.077Z,41.11
2022-08-17T09:25:04.080Z,41.33
2022-08-17T09:26:04.083Z,41.33
2022-08-17T09:27:04.085Z,41.83
2022-08-17T09:28:04.089Z,41.83
2022-08-17T09:29:04.621Z,41.73
2022-08-17T09:30:04.099Z,42.12
2022-08-17T09:31:04.102Z,42.32
2022-08-17T09:32:04.103Z,42.69
2022-08-17T09:33:04.105Z,42.30
2022-08-17T09:34:04.113Z,42.30
2022-08-17T09:35:04.116Z,42.49
2022-08-17T09:36:04.118Z,41.09
2022-08-17T09:37:04.120Z,41.49
2022-08-17T09:38:04.125Z,41.27
2022-08-17T09:39:04.130Z,40.39
2022-08-17T09:40:04.242Z,40.09
2022-08-17T09:41:04.137Z,39.21
2022-08-17T09:42:04.142Z,40.98
2022-08-17T09:43:04.142Z,40.69
2022-08-17T09:44:04.166Z,40.78
2022-08-17T09:45:04.149Z,41.77
2022-08-17T09:46:04.167Z,40.48
2022-08-17T09:47:04.163Z,39.90
2022-08-17T09:48:04.163Z,40.48
2022-08-17T09:49:04.162Z,39.90
2022-08-17T09:50:04.172Z,40.37
2022-08-17T09:51:06.599Z,38.52
2022-08-17T09:52:04.179Z,39.11
2022-08-17T09:53:04.186Z,39.50
2022-08-17T09:54:34.907Z,40.69
2022-08-17T09:55:04.190Z,40.00
2022-08-17T09:56:04.189Z,40.39
2022-08-17T09:57:27.940Z,40.47
2022-08-17T09:58:04.204Z,41.17
2022-08-17T09:59:04.214Z,40.66
2022-08-17T10:00:04.215Z,39.98
2022-08-17T10:01:04.262Z,39.29
2022-08-17T10:02:04.216Z,39.86
2022-08-17T10:03:04.222Z,41.14
2022-08-17T10:04:04.224Z,40.84
2022-08-17T10:05:04.229Z,37.52
2022-08-17T10:06:06.479Z,38.31
2022-08-17T10:07:04.233Z,38.50
2022-08-17T10:08:04.236Z,38.78
2022-08-17T10:09:04.244Z,38.88
2022-08-17T10:10:04.246Z,38.19
2022-08-17T10:11:04.250Z,39.06
2022-08-17T10:12:04.254Z,37.68
2022-08-17T10:13:04.258Z,38.07
2022-08-17T10:14:36.032Z,37.88
2022-08-17T10:15:08.159Z,38.68
2022-08-17T10:16:04.269Z,37.90
2022-08-17T10:17:04.275Z,37.50
2022-08-17T10:18:04.275Z,37.60
2022-08-17T10:19:04.311Z,37.58
2022-08-17T10:20:04.288Z,37.98
2022-08-17T10:21:04.293Z,36.80
2022-08-17T10:22:33.010Z,37.58
2022-08-17T10:23:04.304Z,36.62
2022-08-17T10:24:04.304Z,36.52
2022-08-17T10:25:23.153Z,37.70
2022-08-17T10:26:04.311Z,38.96
2022-08-17T10:27:04.320Z,37.68
2022-08-17T10:28:04.319Z,37.68
2022-08-17T10:29:04.323Z,38.07
2022-08-17T10:30:04.330Z,38.35
2022-08-17T10:31:34.728Z,36.19
2022-08-17T10:32:04.338Z,37.48
2022-08-17T10:33:04.341Z,37.70
2022-08-17T10:34:04.346Z,37.60
2022-08-17T10:35:04.345Z,35.34
2022-08-17T10:36:08.742Z,35.36
2022-08-17T10:37:04.357Z,36.05
2022-08-17T10:38:04.361Z,36.52
2022-08-17T10:39:04.368Z,37.60
2022-08-17T10:40:04.438Z,36.51
2022-08-17T10:41:04.373Z,37.78
2022-08-17T10:42:04.379Z,36.51
2022-08-17T10:43:04.383Z,35.41
2022-08-17T10:44:40.851Z,35.82
2022-08-17T10:45:04.390Z,34.54
2022-08-17T10:46:10.624Z,35.64
2022-08-17T10:47:04.401Z,36.32
2022-08-17T10:48:06.518Z,36.01
2022-08-17T10:49:04.406Z,36.70
2022-08-17T10:50:04.411Z,36.13
2022-08-17T10:51:04.417Z,36.44
2022-08-17T10:52:04.421Z,37.52
2022-08-17T10:53:04.424Z,36.44
2022-08-17T10:54:04.428Z,36.44
2022-08-17T10:55:04.434Z,36.05
2022-08-17T10:56:04.445Z,36.03
2022-08-17T10:57:04.439Z,37.21
2022-08-17T10:58:04.444Z,37.29
2022-08-17T10:59:04.448Z,36.40
2022-08-17T11:00:04.454Z,37.09
2022-08-17T11:01:04.495Z,36.62
2022-08-17T11:02:04.468Z,37.01
2022-08-17T11:03:04.464Z,36.34
2022-08-17T11:04:04.471Z,36.34
2022-08-17T11:05:04.473Z,37.42
2022-08-17T11:06:04.476Z,37.13
2022-08-17T11:07:04.478Z,36.62
2022-08-17T11:08:04.487Z,36.72
2022-08-17T11:09:04.495Z,37.01
2022-08-17T11:10:04.496Z,36.03
2022-08-17T11:11:04.496Z,36.40
2022-08-17T11:12:04.504Z,36.60
2022-08-17T11:13:04.505Z,36.09
2022-08-17T11:14:04.509Z,34.62
2022-08-17T11:15:04.515Z,36.47
2022-08-17T11:16:08.232Z,35.00
2022-08-17T11:17:04.522Z,33.43
2022-08-17T11:18:04.527Z,34.03
2022-08-17T11:19:04.534Z,35.31
2022-08-17T11:20:04.536Z,34.62
2022-08-17T11:21:04.538Z,34.72
2022-08-17T11:22:04.544Z,35.89
2022-08-17T11:23:04.547Z,35.80
2022-08-17T11:24:04.598Z,35.00
2022-08-17T11:25:04.559Z,33.44
2022-08-17T11:26:04.563Z,35.11
2022-08-17T11:27:04.570Z,35.21
2022-08-17T11:28:04.571Z,34.62
2022-08-17T11:29:04.574Z,35.49
2022-08-17T11:30:04.579Z,34.01
2022-08-17T11:31:04.584Z,34.72
2022-08-17T11:32:04.598Z,34.90
2022-08-17T11:33:04.590Z,34.23
2022-08-17T11:34:04.596Z,34.11
2022-08-17T11:35:04.607Z,34.11
2022-08-17T11:36:04.605Z,34.62
2022-08-17T11:37:04.605Z,35.11
2022-08-17T11:38:04.612Z,35.19
2022-08-17T11:39:04.620Z,35.68
2022-08-17T11:40:04.688Z,36.74
2022-08-17T11:41:04.623Z,34.49
2022-08-17T11:42:04.632Z,34.49
2022-08-17T11:43:04.637Z,34.30
2022-08-17T11:44:04.640Z,34.51
2022-08-17T11:45:04.642Z,35.60
2022-08-17T11:46:04.649Z,34.13
2022-08-17T11:47:04.652Z,34.52
2022-08-17T11:48:31.093Z,33.84
2022-08-17T11:49:04.662Z,34.54
2022-08-17T11:50:04.669Z,34.83
2022-08-17T11:51:04.668Z,35.62
2022-08-17T11:52:04.673Z,34.64
2022-08-17T11:53:04.677Z,34.64
2022-08-17T11:54:31.174Z,34.44
2022-08-17T11:55:31.839Z,34.54
2022-08-17T11:56:04.692Z,34.54
2022-08-17T11:57:04.695Z,35.52
2022-08-17T11:58:04.701Z,34.54
2022-08-17T11:59:04.705Z,36.30
2022-08-17T12:00:04.709Z,36.58
2022-08-17T12:01:06.036Z,36.08
2022-08-17T12:02:04.718Z,34.88
2022-08-17T12:03:04.753Z,32.92
2022-08-17T12:04:04.765Z,34.08
2022-08-17T12:05:04.730Z,32.51
2022-08-17T12:06:04.735Z,32.90
2022-08-17T12:07:04.738Z,32.34
2022-08-17T12:08:04.744Z,32.63
2022-08-17T12:09:04.752Z,31.65
2022-08-17T12:10:04.756Z,34.70
2022-08-17T12:11:04.756Z,33.82
2022-08-17T12:12:13.759Z,33.22
2022-08-17T12:13:04.766Z,33.39
2022-08-17T12:14:04.769Z,33.39
2022-08-17T12:15:12.405Z,32.60
2022-08-17T12:16:04.782Z,31.70
2022-08-17T12:17:04.780Z,32.39
2022-08-17T12:18:04.790Z,32.27
2022-08-17T12:19:04.804Z,32.26
2022-08-17T12:20:04.801Z,32.82
2022-08-17T12:21:04.803Z,32.43
2022-08-17T12:22:04.809Z,32.52
2022-08-17T12:23:04.824Z,31.84
2022-08-17T12:24:04.817Z,32.32
2022-08-17T12:25:04.822Z,31.64
2022-08-17T12:26:04.831Z,31.43
2022-08-17T12:27:04.838Z,30.26
2022-08-17T12:28:07.435Z,31.72
2022-08-17T12:29:05.140Z,29.75
2022-08-17T12:30:04.849Z,30.06
2022-08-17T12:31:04.852Z,30.06
2022-08-17T12:32:04.859Z,29.38
2022-08-17T12:33:04.863Z,29.96
2022-08-17T12:34:04.872Z,30.55
2022-08-17T12:35:04.876Z,29.49
2022-08-17T12:36:04.883Z,30.27
2022-08-17T12:37:04.884Z,30.96
2022-08-17T12:38:04.893Z,30.27
2022-08-17T12:39:14.228Z,30.27
2022-08-17T12:40:05.009Z,29.98
2022-08-17T12:41:04.929Z,30.87
2022-08-17T12:42:04.914Z,32.82
2022-08-17T12:43:04.919Z,31.57
2022-08-17T12:44:04.933Z,32.45
2022-08-17T12:45:04.926Z,32.06
2022-08-17T12:46:13.486Z,32.16
2022-08-17T12:47:04.938Z,30.98
2022-08-17T12:48:04.944Z,31.48
2022-08-17T12:49:04.949Z,31.87
2022-08-17T12:50:05.013Z,32.26
2022-08-17T12:51:04.959Z,32.65
2022-08-17T12:52:04.967Z,31.87
2022-08-17T12:53:04.969Z,32.07